createdAt,value
2022-10-21T00:01:33.149Z,100341.69
2022-10-21T00:04:02.224Z,100351.25
2022-10-21T00:06:29.114Z,100355.63
2022-10-21T00:08:56.156Z,100330.38
2022-10-21T00:11:46.582Z,100339.03
2022-10-21T00:14:13.105Z,100336.38
2022-10-21T00:16:39.785Z,100333.81
2022-10-21T00:19:06.322Z,100340.78
2022-10-21T00:21:33.414Z,100325.13
2022-10-21T00:24:00.099Z,100331.22
2022-10-21T00:26:26.663Z,100329.50
2022-10-21T00:28:57.409Z,100338.13
2022-10-21T00:31:24.956Z,100340.75
2022-10-21T00:33:51.657Z,100338.16
2022-10-21T00:36:18.758Z,100337.31
2022-10-21T00:38:48.419Z,100339.91
2022-10-21T00:41:17.658Z,100338.16
2022-10-21T00:44:06.485Z,100338.16
2022-10-21T00:46:57.954Z,100331.16
2022-10-21T00:49:44.919Z,100317.28
2022-10-21T00:52:22.034Z,100316.44
2022-10-21T00:54:55.476Z,100317.31
2022-10-21T00:57:23.635Z,100318.19
2022-10-21T00:59:57.753Z,100308.66
2022-10-21T01:02:24.483Z,100315.63
2022-10-21T01:04:53.782Z,100306.06
2022-10-21T01:07:20.583Z,100283.50
2022-10-21T01:09:47.146Z,100286.03
2022-10-21T01:12:51.919Z,100301.66
2022-10-21T01:15:25.874Z,100295.50
2022-10-21T01:18:06.413Z,100285.94
2022-10-21T01:20:44.834Z,100278.94
2022-10-21T01:23:26.817Z,100274.53
2022-10-21T01:25:59.838Z,100275.47
2022-10-21T01:28:45.368Z,100267.66
2022-10-21T01:31:27.779Z,100262.44
2022-10-21T01:34:12.157Z,100256.34
2022-10-21T01:36:55.500Z,100249.38
2022-10-21T01:39:29.023Z,100243.22
2022-10-21T01:42:03.648Z,100236.19
2022-10-21T01:44:40.890Z,100233.59
2022-10-21T01:47:16.588Z,100232.66
2022-10-21T01:49:51.639Z,100235.25
2022-10-21T01:52:18.562Z,100237.94
2022-10-21T01:54:50.253Z,100236.25
2022-10-21T01:57:20.945Z,100258.00
2022-10-21T01:59:48.185Z,100257.16
2022-10-21T02:02:16.185Z,100257.09
2022-10-21T02:04:45.914Z,100252.75
2022-10-21T02:07:12.504Z,100236.25
2022-10-21T02:09:39.075Z,100242.28
2022-10-21T02:12:07.583Z,100238.75
2022-10-21T02:14:42.186Z,100227.47
2022-10-21T02:17:12.893Z,100227.41
2022-10-21T02:19:39.832Z,100222.19
2022-10-21T02:22:09.701Z,100216.88
2022-10-21T02:24:44.395Z,100231.75
2022-10-21T02:27:11.332Z,100231.69
2022-10-21T02:29:40.747Z,100224.78
2022-10-21T02:32:22.663Z,100226.44
2022-10-21T02:34:55.488Z,100220.28
2022-10-21T02:37:47.050Z,100214.16
2022-10-21T02:40:19.990Z,100182.91
2022-10-21T02:42:52.529Z,100197.78
2022-10-21T02:45:19.320Z,100197.78
2022-10-21T02:47:48.504Z,100183.75
2022-10-21T02:50:15.435Z,100179.47
2022-10-21T02:52:42.144Z,100198.66
2022-10-21T02:55:09.171Z,100183.84
2022-10-21T02:57:36.229Z,100195.19
2022-10-21T03:00:05.384Z,100184.81
2022-10-21T03:02:32.079Z,100172.69
2022-10-21T03:04:58.987Z,100177.03
2022-10-21T03:07:25.574Z,100176.19
2022-10-21T03:09:52.117Z,100172.72
2022-10-21T03:12:18.728Z,100164.88
2022-10-21T03:14:45.446Z,100168.41
2022-10-21T03:17:12.080Z,100170.09
2022-10-21T03:19:38.653Z,100170.97
2022-10-21T03:22:05.262Z,100172.72
2022-10-21T03:24:31.852Z,100170.16
2022-10-21T03:26:58.472Z,100171.81
2022-10-21T03:29:25.061Z,100180.66
2022-10-21T03:31:51.667Z,100152.88
2022-10-21T03:34:18.402Z,100162.47
2022-10-21T03:36:45.010Z,100169.34
2022-10-21T03:39:12.769Z,100177.97
2022-10-21T03:41:39.739Z,100172.75
2022-10-21T03:44:06.281Z,100177.94
2022-10-21T03:46:32.958Z,100165.72
2022-10-21T03:49:04.447Z,100174.44
2022-10-21T03:51:33.378Z,100162.31
2022-10-21T03:53:59.940Z,100165.75
2022-10-21T03:56:26.617Z,100170.13
2022-10-21T03:58:57.757Z,100164.00
2022-10-21T04:01:25.782Z,100159.69
2022-10-21T04:03:52.495Z,100164.78
2022-10-21T04:06:19.025Z,100156.88
2022-10-21T04:08:45.589Z,100155.03
2022-10-21T04:11:12.171Z,100147.97
2022-10-21T04:13:38.850Z,100156.66
2022-10-21T04:16:08.320Z,100151.44
2022-10-21T04:18:34.970Z,100151.44
2022-10-21T04:21:01.560Z,100152.38
2022-10-21T04:23:28.108Z,100139.41
2022-10-21T04:25:54.698Z,100143.59
2022-10-21T04:28:21.482Z,100141.09
2022-10-21T04:30:49.793Z,100142.81
2022-10-21T04:33:16.734Z,100141.06
2022-10-21T04:35:43.450Z,100137.59
2022-10-21T04:38:10.168Z,100134.19
2022-10-21T04:40:37.114Z,100137.56
2022-10-21T04:43:04.178Z,100128.78
2022-10-21T04:45:31.053Z,100119.22
2022-10-21T04:47:57.888Z,100099.34
2022-10-21T04:50:24.579Z,100109.59
2022-10-21T04:52:51.694Z,100099.31
2022-10-21T04:55:18.390Z,100112.31
2022-10-21T04:57:45.063Z,100122.00
2022-10-21T05:00:12.552Z,100119.31
2022-10-21T05:02:39.495Z,100117.53
2022-10-21T05:05:06.627Z,100120.94
2022-10-21T05:07:33.350Z,100119.47
2022-10-21T05:09:59.991Z,100112.44
2022-10-21T05:12:26.585Z,100116.69
2022-10-21T05:14:53.195Z,100112.41
2022-10-21T05:17:19.728Z,100118.44
2022-10-21T05:19:46.367Z,100110.66
2022-10-21T05:22:12.930Z,100110.72
2022-10-21T05:24:39.859Z,100112.53
2022-10-21T05:27:06.419Z,100104.75
2022-10-21T05:29:33.146Z,100103.88
2022-10-21T05:31:59.943Z,100101.22
2022-10-21T05:34:26.512Z,100110.69
2022-10-21T05:36:53.089Z,100111.53
2022-10-21T05:39:19.619Z,100114.97
2022-10-21T05:41:47.994Z,100122.88
2022-10-21T05:44:15.336Z,100119.41
2022-10-21T05:46:41.882Z,100115.03
2022-10-21T05:49:08.623Z,100112.50
2022-10-21T05:51:35.303Z,100112.53
2022-10-21T05:54:04.001Z,100112.53
2022-10-21T05:56:30.855Z,100103.91
2022-10-21T05:58:57.549Z,100105.56
2022-10-21T06:01:24.134Z,100096.94
2022-10-21T06:03:50.820Z,100109.06
2022-10-21T06:06:17.656Z,100103.97
2022-10-21T06:08:44.373Z,100105.56
2022-10-21T06:11:14.452Z,100102.34
2022-10-21T06:13:41.515Z,100103.13
2022-10-21T06:16:09.660Z,100103.94
2022-10-21T06:18:36.674Z,100093.47
2022-10-21T06:21:04.008Z,100092.69
2022-10-21T06:23:30.685Z,100095.28
2022-10-21T06:26:00.246Z,100094.50
2022-10-21T06:28:27.813Z,100099.72
2022-10-21T06:30:54.498Z,100117.13
2022-10-21T06:33:26.101Z,100099.72
2022-10-21T06:35:54.705Z,100115.41
2022-10-21T06:38:21.504Z,100122.34
2022-10-21T06:40:48.839Z,100121.47
2022-10-21T06:43:16.298Z,100127.56
2022-10-21T06:45:42.912Z,100123.22
2022-10-21T06:48:09.973Z,100120.59
2022-10-21T06:50:40.053Z,100135.38
2022-10-21T06:53:06.656Z,100134.53
2022-10-21T06:55:33.295Z,100136.28
2022-10-21T06:58:00.096Z,100141.50
2022-10-21T07:00:27.137Z,100137.13
2022-10-21T07:02:53.733Z,100135.34
2022-10-21T07:05:20.325Z,100125.91
2022-10-21T07:07:46.864Z,100131.06
2022-10-21T07:10:13.469Z,100143.25
2022-10-21T07:12:40.034Z,100138.03
2022-10-21T07:15:06.999Z,100138.81
2022-10-21T07:17:33.947Z,100133.59
2022-10-21T07:20:00.575Z,100144.03
2022-10-21T07:22:27.157Z,100130.09
2022-10-21T07:24:53.774Z,100139.59
2022-10-21T07:27:20.436Z,100135.97
2022-10-21T07:29:47.030Z,100144.56
2022-10-21T07:32:13.548Z,100135.81
2022-10-21T07:34:40.176Z,100146.16
2022-10-21T07:37:06.840Z,100150.31
2022-10-21T07:39:34.987Z,100146.88
2022-10-21T07:42:01.734Z,100152.84
2022-10-21T07:44:28.397Z,100144.03
2022-10-21T07:46:55.945Z,100143.84
2022-10-21T07:49:23.450Z,100145.50
2022-10-21T07:51:50.486Z,100142.94
2022-10-21T07:54:18.488Z,100145.34
2022-10-21T07:56:47.972Z,100143.59
2022-10-21T07:59:14.779Z,100145.34
2022-10-21T08:01:44.569Z,100150.66
2022-10-21T08:04:14.167Z,100151.31
2022-10-21T08:06:41.221Z,100146.84
2022-10-21T08:09:07.934Z,100143.28
2022-10-21T08:11:34.732Z,100138.16
2022-10-21T08:14:03.142Z,100151.94
2022-10-21T08:16:29.723Z,100150.34
2022-10-21T08:18:59.053Z,100148.44
2022-10-21T08:21:25.647Z,100143.22
2022-10-21T08:23:52.331Z,100144.09
2022-10-21T08:26:19.241Z,100145.56
2022-10-21T08:28:46.002Z,100145.69
2022-10-21T08:31:19.298Z,100131.53
2022-10-21T08:33:46.543Z,100136.75
2022-10-21T08:36:24.973Z,100139.44
2022-10-21T08:38:52.513Z,100128.84
2022-10-21T08:41:31.491Z,100142.75
2022-10-21T08:44:29.378Z,100147.84
2022-10-21T08:47:05.168Z,100134.75
2022-10-21T08:50:04.575Z,100151.16
2022-10-21T08:52:31.054Z,100157.34
2022-10-21T08:55:05.121Z,100149.22
2022-10-21T08:57:34.646Z,100150.88
2022-10-21T09:00:01.412Z,100143.91
2022-10-21T09:02:53.373Z,100148.94
2022-10-21T09:06:02.857Z,100151.78
2022-10-21T09:08:48.039Z,100155.31
2022-10-21T09:11:29.862Z,100164.22
2022-10-21T09:14:20.808Z,100170.25
2022-10-21T09:17:14.923Z,100161.25
2022-10-21T09:20:00.118Z,100164.69
2022-10-21T09:22:35.625Z,100160.22
2022-10-21T09:25:19.899Z,100152.09
2022-10-21T09:28:02.602Z,100145.28
2022-10-21T09:30:29.416Z,100152.16
2022-10-21T09:33:00.275Z,100148.88
2022-10-21T09:35:52.656Z,100160.25
2022-10-21T09:38:31.134Z,100158.53
2022-10-21T09:41:01.331Z,100144.56
2022-10-21T09:43:27.976Z,100143.03
2022-10-21T09:45:54.669Z,100135.22
2022-10-21T09:48:50.232Z,100148.97
2022-10-21T09:51:29.279Z,100148.50
2022-10-21T09:53:58.741Z,100152.91
2022-10-21T09:56:30.842Z,100150.31
2022-10-21T09:59:11.490Z,100151.84
2022-10-21T10:01:39.825Z,100153.56
2022-10-21T10:04:12.321Z,100155.25
2022-10-21T10:06:43.905Z,100149.97
2022-10-21T10:09:16.575Z,100157.66
2022-10-21T10:11:54.102Z,100161.03
2022-10-21T10:14:25.494Z,100156.59
2022-10-21T10:16:52.124Z,100152.25
2022-10-21T10:19:22.291Z,100155.72
2022-10-21T10:22:10.464Z,100159.16
2022-10-21T10:24:40.440Z,100154.69
2022-10-21T10:27:20.784Z,100153.66
2022-10-21T10:29:56.254Z,100146.03
2022-10-21T10:32:25.943Z,100147.59
2022-10-21T10:34:55.738Z,100148.34
2022-10-21T10:37:27.766Z,100148.22
2022-10-21T10:39:58.969Z,100160.53
2022-10-21T10:42:29.232Z,100162.09
2022-10-21T10:45:00.493Z,100156.78
2022-10-21T10:47:42.804Z,100160.94
2022-10-21T10:50:46.935Z,100157.47
2022-10-21T10:53:27.382Z,100160.22
2022-10-21T10:56:22.939Z,100164.38
2022-10-21T10:59:16.834Z,100162.91
2022-10-21T11:01:55.846Z,100156.16
2022-10-21T11:05:04.207Z,100153.19
2022-10-21T11:07:35.946Z,100142.69
2022-10-21T11:10:34.117Z,100152.88
2022-10-21T11:13:02.262Z,100154.69
2022-10-21T11:15:44.061Z,100152.13
2022-10-21T11:18:24.556Z,100161.44
2022-10-21T11:21:33.698Z,100158.84
2022-10-21T11:24:19.215Z,100168.47
2022-10-21T11:26:51.655Z,100165.94
2022-10-21T11:29:35.403Z,100168.72
2022-10-21T11:32:29.963Z,100167.97
2022-10-21T11:35:02.934Z,100169.56
2022-10-21T11:37:57.680Z,100178.25
2022-10-21T11:40:46.480Z,100180.03
2022-10-21T11:43:22.179Z,100185.59
2022-10-21T11:45:54.930Z,100194.00
2022-10-21T11:48:44.104Z,100187.06
2022-10-21T11:51:37.828Z,100189.53
2022-10-21T11:54:11.831Z,100189.47
2022-10-21T11:57:05.892Z,100181.63
2022-10-21T11:59:52.425Z,100183.28
2022-10-21T12:02:27.603Z,100182.94
2022-10-21T12:05:12.720Z,100188.81
2022-10-21T12:07:48.275Z,100179.97
2022-10-21T12:10:14.774Z,100176.72
2022-10-21T12:12:46.354Z,100173.09
2022-10-21T12:15:25.629Z,100170.50
2022-10-21T12:17:53.428Z,100167.13
2022-10-21T12:20:27.033Z,100151.53
2022-10-21T12:23:05.253Z,100171.56
2022-10-21T12:25:41.113Z,100169.53
2022-10-21T12:28:16.444Z,100174.28
2022-10-21T12:30:50.774Z,100173.31
2022-10-21T12:33:28.482Z,100176.84
2022-10-21T12:36:11.488Z,100173.41
2022-10-21T12:38:49.089Z,100184.69
2022-10-21T12:41:24.910Z,100181.16
2022-10-21T12:44:03.726Z,100186.38
2022-10-21T12:46:49.583Z,100189.88
2022-10-21T12:49:33.856Z,100185.53
2022-10-21T12:52:10.240Z,100186.41
2022-10-21T12:54:44.166Z,100183.28
2022-10-21T12:57:24.050Z,100171.69
2022-10-21T12:59:50.760Z,100172.56
2022-10-21T13:02:24.632Z,100161.06
2022-10-21T13:04:53.969Z,100188.97
2022-10-21T13:07:30.150Z,100171.56
2022-10-21T13:09:59.812Z,100154.22
2022-10-21T13:12:29.767Z,100155.25
2022-10-21T13:14:58.852Z,100154.94
2022-10-21T13:17:54.335Z,100159.38
2022-10-21T13:20:20.880Z,100166.25
2022-10-21T13:22:49.528Z,100167.69
2022-10-21T13:25:16.063Z,100168.63
2022-10-21T13:27:52.509Z,100156.88
2022-10-21T13:30:31.342Z,100153.44
2022-10-21T13:33:04.199Z,100154.72
2022-10-21T13:35:53.434Z,100162.06
2022-10-21T13:38:33.780Z,100162.88
2022-10-21T13:41:04.378Z,100159.16
2022-10-21T13:43:48.070Z,100156.81
2022-10-21T13:46:18.423Z,100155.41
2022-10-21T13:48:47.899Z,100157.22
2022-10-21T13:51:18.939Z,100158.09
2022-10-21T13:53:45.959Z,100165.84
2022-10-21T13:56:25.323Z,100160.28
2022-10-21T13:58:52.431Z,100165.88
2022-10-21T14:01:22.488Z,100165.84
2022-10-21T14:03:50.207Z,100173.66
2022-10-21T14:06:37.124Z,100169.47
2022-10-21T14:09:08.186Z,100176.25
2022-10-21T14:11:43.400Z,100171.88
2022-10-21T14:14:14.982Z,100176.84
2022-10-21T14:16:47.722Z,100176.97
2022-10-21T14:19:21.866Z,100174.16
2022-10-21T14:21:52.477Z,100167.94
2022-10-21T14:24:44.638Z,100169.44
2022-10-21T14:27:34.865Z,100170.31
2022-10-21T14:30:04.286Z,100158.13
2022-10-21T14:32:31.296Z,100171.09
2022-10-21T14:35:10.113Z,100154.66
2022-10-21T14:37:46.342Z,100168.47
2022-10-21T14:40:19.182Z,100173.84
2022-10-21T14:42:49.750Z,100171.56
2022-10-21T14:45:32.229Z,100175.91
2022-10-21T14:48:32.308Z,100165.91
2022-10-21T14:51:17.634Z,100161.34
2022-10-21T14:53:52.554Z,100157.19
2022-10-21T14:56:22.887Z,100161.66
2022-10-21T14:58:57.207Z,100158.28
2022-10-21T15:01:25.056Z,100159.78
2022-10-21T15:03:57.486Z,100161.41
2022-10-21T15:06:28.999Z,100162.16
2022-10-21T15:09:15.746Z,100164.22
2022-10-21T15:11:47.022Z,100166.84
2022-10-21T15:14:13.682Z,100162.50
2022-10-21T15:16:56.713Z,100160.19
2022-10-21T15:19:34.110Z,100153.19
2022-10-21T15:22:02.126Z,100153.16
2022-10-21T15:24:43.009Z,100144.75
2022-10-21T15:27:42.361Z,100161.22
2022-10-21T15:30:21.677Z,100158.41
2022-10-21T15:32:49.477Z,100159.97
2022-10-21T15:35:18.791Z,100169.16
2022-10-21T15:37:49.623Z,100177.53
2022-10-21T15:40:18.475Z,100172.91
2022-10-21T15:42:46.382Z,100171.31
2022-10-21T15:45:16.489Z,100176.91
2022-10-21T15:47:43.197Z,100168.91
2022-10-21T15:50:14.831Z,100164.16
2022-10-21T15:52:41.425Z,100168.41
2022-10-21T15:55:10.339Z,100162.41
2022-10-21T15:57:38.800Z,100170.00
2022-10-21T16:00:22.702Z,100166.41
2022-10-21T16:02:51.670Z,100165.97
2022-10-21T16:05:18.687Z,100169.00
2022-10-21T16:07:45.885Z,100153.53
2022-10-21T16:10:29.451Z,100161.47
2022-10-21T16:12:57.438Z,100162.38
2022-10-21T16:15:24.668Z,100160.97
2022-10-21T16:17:54.053Z,100172.34
2022-10-21T16:20:23.589Z,100158.75
2022-10-21T16:22:50.266Z,100165.91
2022-10-21T16:25:17.152Z,100170.31
2022-10-21T16:27:55.676Z,100164.94
2022-10-21T16:30:26.199Z,100172.22
2022-10-21T16:32:52.969Z,100166.25
2022-10-21T16:35:20.697Z,100175.94
2022-10-21T16:37:47.997Z,100176.09
2022-10-21T16:40:22.424Z,100166.81
2022-10-21T16:42:50.308Z,100181.63
2022-10-21T16:45:18.511Z,100182.66
2022-10-21T16:47:56.472Z,100188.63
2022-10-21T16:50:27.206Z,100187.09
2022-10-21T16:52:53.795Z,100189.75
2022-10-21T16:55:23.233Z,100192.50
2022-10-21T16:57:49.823Z,100204.78
2022-10-21T17:00:17.941Z,100190.00
2022-10-21T17:02:48.348Z,100193.41
2022-10-21T17:05:15.465Z,100186.53
2022-10-21T17:07:42.404Z,100188.38
2022-10-21T17:10:09.932Z,100190.16
2022-10-21T17:12:36.622Z,100192.69
2022-10-21T17:15:03.751Z,100189.28
2022-10-21T17:17:31.095Z,100185.78
2022-10-21T17:19:57.752Z,100187.56
2022-10-21T17:22:24.350Z,100189.91
2022-10-21T17:24:51.051Z,100176.81
2022-10-21T17:27:19.641Z,100184.88
2022-10-21T17:29:46.831Z,100190.22
2022-10-21T17:32:13.711Z,100190.38
2022-10-21T17:34:41.145Z,100195.75
2022-10-21T17:37:09.084Z,100198.41
2022-10-21T17:39:35.775Z,100199.16
2022-10-21T17:42:02.493Z,100200.16
2022-10-21T17:44:29.216Z,100206.28
2022-10-21T17:46:55.937Z,100203.81
2022-10-21T17:49:24.797Z,100195.09
2022-10-21T17:51:52.048Z,100206.44
2022-10-21T17:54:22.850Z,100216.13
2022-10-21T17:56:53.452Z,100200.56
2022-10-21T17:59:22.783Z,100207.59
2022-10-21T18:01:49.419Z,100218.13
2022-10-21T18:04:16.366Z,100220.94
2022-10-21T18:06:43.057Z,100225.31
2022-10-21T18:09:09.713Z,100234.94
2022-10-21T18:11:37.058Z,100238.41
2022-10-21T18:14:04.278Z,100241.19
2022-10-21T18:16:31.098Z,100243.91
2022-10-21T18:19:03.208Z,100239.56
2022-10-21T18:21:30.932Z,100250.16
2022-10-21T18:23:57.957Z,100251.94
2022-10-21T18:26:27.172Z,100251.94
2022-10-21T18:28:59.860Z,100251.22
2022-10-21T18:31:32.828Z,100252.97
2022-10-21T18:34:01.482Z,100255.66
2022-10-21T18:36:28.049Z,100242.66
2022-10-21T18:38:54.896Z,100248.81
2022-10-21T18:41:21.983Z,100245.34
2022-10-21T18:44:15.133Z,100239.22
2022-10-21T18:46:42.819Z,100229.75
2022-10-21T18:49:13.970Z,100226.38
2022-10-21T18:51:40.951Z,100214.19
2022-10-21T18:54:07.825Z,100215.97
2022-10-21T18:56:34.539Z,100232.56
2022-10-21T18:59:01.259Z,100222.13
2022-10-21T19:01:30.105Z,100224.78
2022-10-21T19:03:56.691Z,100191.00
2022-10-21T19:06:37.227Z,100215.38
2022-10-21T19:09:19.181Z,100216.28
2022-10-21T19:11:49.389Z,100223.16
2022-10-21T19:14:16.546Z,100224.84
2022-10-21T19:16:44.570Z,100217.00
2022-10-21T19:19:11.321Z,100223.22
2022-10-21T19:21:38.307Z,100230.25
2022-10-21T19:24:05.369Z,100238.16
2022-10-21T19:26:34.409Z,100237.41
2022-10-21T19:29:10.867Z,100248.66
2022-10-21T19:31:38.602Z,100243.53
2022-10-21T19:34:06.500Z,100240.94
2022-10-21T19:36:33.708Z,100252.22
2022-10-21T19:39:00.176Z,100254.00
2022-10-21T19:41:26.725Z,100256.66
2022-10-21T19:43:58.395Z,100262.78
2022-10-21T19:46:27.658Z,100268.81
2022-10-21T19:48:54.405Z,100268.81
2022-10-21T19:51:23.158Z,100263.59
2022-10-21T19:53:51.781Z,100266.16
2022-10-21T19:56:22.340Z,100271.47
2022-10-21T19:58:54.067Z,100267.13
2022-10-21T20:01:24.204Z,100272.34
2022-10-21T20:03:52.621Z,100270.63
2022-10-21T20:06:29.215Z,100266.31
2022-10-21T20:09:01.707Z,100260.22
2022-10-21T20:11:29.355Z,100268.97
2022-10-21T20:13:56.601Z,100262.88
2022-10-21T20:16:26.654Z,100266.34
2022-10-21T20:18:55.163Z,100266.44
2022-10-21T20:21:23.096Z,100263.06
2022-10-21T20:23:50.139Z,100254.41
2022-10-21T20:26:16.759Z,100260.50
2022-10-21T20:28:43.455Z,100259.66
2022-10-21T20:31:13.512Z,100256.25
2022-10-21T20:33:43.255Z,100250.28
2022-10-21T20:36:16.676Z,100269.47
2022-10-21T20:38:44.128Z,100267.81
2022-10-21T20:41:13.340Z,100281.78
2022-10-21T20:43:41.901Z,100287.13
2022-10-21T20:46:11.775Z,100295.78
2022-10-21T20:48:48.066Z,100304.56
2022-10-21T20:51:17.937Z,100296.69
2022-10-21T20:53:50.005Z,100306.31
2022-10-21T20:56:16.646Z,100303.78
2022-10-21T20:58:43.392Z,100302.91
2022-10-21T21:01:17.782Z,100305.59
2022-10-21T21:03:45.583Z,100316.94
2022-10-21T21:06:12.841Z,100318.69
2022-10-21T21:08:48.667Z,100318.69
2022-10-21T21:11:21.088Z,100332.63
2022-10-21T21:13:48.089Z,100330.91
2022-10-21T21:16:16.262Z,100325.72
2022-10-21T21:18:49.331Z,100316.09
2022-10-21T21:21:18.133Z,100306.50
2022-10-21T21:23:45.864Z,100317.88
2022-10-21T21:26:18.703Z,100304.78
2022-10-21T21:28:46.028Z,100317.00
2022-10-21T21:31:14.060Z,100305.66
2022-10-21T21:33:42.434Z,100308.34
2022-10-21T21:36:09.525Z,100308.34
2022-10-21T21:38:36.120Z,100308.34
2022-10-21T21:41:05.554Z,100304.94
2022-10-21T21:43:36.640Z,100318.88
2022-10-21T21:46:03.620Z,100315.38
2022-10-21T21:48:34.117Z,100317.13
2022-10-21T21:51:02.048Z,100313.59
2022-10-21T21:53:28.661Z,100324.09
2022-10-21T21:55:57.707Z,100315.38
2022-10-21T21:58:27.505Z,100322.44
2022-10-21T22:00:54.191Z,100308.53
2022-10-21T22:03:21.654Z,100317.22
2022-10-21T22:05:48.507Z,100311.13
2022-10-21T22:08:15.082Z,100319.00
2022-10-21T22:10:42.507Z,100307.69
2022-10-21T22:13:09.248Z,100318.16
2022-10-21T22:15:47.741Z,100325.13
2022-10-21T22:18:14.862Z,100316.41
2022-10-21T22:20:41.470Z,100317.31
2022-10-21T22:23:08.046Z,100319.88
2022-10-21T22:25:35.086Z,100309.44
2022-10-21T22:28:01.695Z,100307.75
2022-10-21T22:30:28.480Z,100310.38
2022-10-21T22:32:55.036Z,100306.91
2022-10-21T22:35:21.572Z,100315.59
2022-10-21T22:37:48.140Z,100319.09
2022-10-21T22:40:14.719Z,100328.63
2022-10-21T22:42:41.335Z,100315.56
2022-10-21T22:45:08.231Z,100316.44
2022-10-21T22:47:34.881Z,100313.84
2022-10-21T22:50:01.474Z,100306.91
2022-10-21T22:52:28.056Z,100300.81
2022-10-21T22:54:54.572Z,100306.88
2022-10-21T22:57:21.135Z,100306.00
2022-10-21T22:59:52.830Z,100305.13
2022-10-21T23:02:19.988Z,100305.13
2022-10-21T23:04:46.558Z,100282.50
2022-10-21T23:07:13.109Z,100291.22
2022-10-21T23:09:39.758Z,100293.84
2022-10-21T23:12:06.390Z,100295.63
2022-10-21T23:14:33.021Z,100306.91
2022-10-21T23:16:59.598Z,100319.09
2022-10-21T23:19:26.218Z,100308.66
2022-10-21T23:21:52.894Z,100311.25
2022-10-21T23:24:19.512Z,100324.31
2022-10-21T23:26:46.143Z,100305.19
2022-10-21T23:29:12.715Z,100316.47
2022-10-21T23:31:39.435Z,100299.97
2022-10-21T23:34:06.101Z,100306.03
2022-10-21T23:36:34.522Z,100311.28
2022-10-21T23:39:01.858Z,100311.31
2022-10-21T23:41:28.786Z,100303.44
2022-10-21T23:43:55.410Z,100297.38
2022-10-21T23:46:22.498Z,100293.88
2022-10-21T23:48:49.145Z,100293.03
2022-10-21T23:51:15.691Z,100316.50
2022-10-21T23:53:42.267Z,100332.19
2022-10-21T23:56:09.002Z,100327.81
2022-10-21T23:58:35.647Z,100334.78
